Time;durP1;ratioP1;P1;durP2;ratioP2;P2;SDS_P1;SDS_P2;PMS_P1;PMS_P2;Temp;Humidity;BMP_temperature;BMP_pressure;BME280_temperature;BME280_humidity;BME280_pressure;Samples;Min_cycle;Max_cycle;Signal;HPM_P1;HPM_P2
2022/08/29 13:55:26;;;;;;;4.85;2.60;;;26.00;69.00;;;;;;4194077;27;20926;-65
2022/08/29 13:57:30;;;;;;;6.82;3.17;;;25.90;68.20;;;;;;4169797;28;20071;-66
2022/08/29 13:59:34;;;;;;;4.78;2.20;;;25.70;63.50;;;;;;4187545;28;20037;-66
2022/08/29 14:01:35;;;;;;;5.45;2.80;;;25.40;63.70;;;;;;4187679;27;20128;-67
2022/08/29 14:03:36;;;;;;;5.97;2.85;;;25.30;65.60;;;;;;4184834;28;20055;-66
2022/08/29 14:05:37;;;;;;;5.55;2.42;;;25.30;65.80;;;;;;4187050;28;20512;-67
2022/08/29 14:07:41;;;;;;;3.10;2.20;;;25.30;69.90;;;;;;4186747;28;20025;-66
2022/08/29 14:09:43;;;;;;;6.78;2.92;;;25.40;70.50;;;;;;4186280;28;20028;-67
2022/08/29 14:11:43;;;;;;;5.45;2.53;;;25.40;69.80;;;;;;4186325;28;20041;-66
2022/08/29 14:13:46;;;;;;;5.55;2.83;;;25.30;66.30;;;;;;4202426;28;20525;-66
2022/08/29 14:15:46;;;;;;;7.10;3.28;;;25.30;64.70;;;;;;4186375;27;20035;-67
2022/08/29 14:17:47;;;;;;;4.95;2.42;;;25.30;66.70;;;;;;4186495;28;20044;-66
2022/08/29 14:19:48;;;;;;;7.43;2.88;;;25.30;72.90;;;;;;4187337;28;20453;-65
2022/08/29 14:21:49;;;;;;;6.55;2.90;;;25.40;69.90;;;;;;4187199;28;20032;-67
2022/08/29 14:23:50;;;;;;;5.20;2.88;;;25.30;65.00;;;;;;4188538;27;20036;-67
2022/08/29 14:25:51;;;;;;;10.95;2.97;;;25.30;65.40;;;;;;4186552;28;20102;-67
2022/08/29 14:27:52;;;;;;;4.15;2.28;;;25.20;64.80;;;;;;4186770;28;20806;-67
2022/08/29 14:29:53;;;;;;;5.38;2.67;;;25.20;65.10;;;;;;4186132;28;20570;-66
2022/08/29 14:31:53;;;;;;;7.75;2.72;;;25.00;65.30;;;;;;4183866;28;20037;-67
2022/08/29 14:33:54;;;;;;;5.50;2.75;;;24.70;65.10;;;;;;4200093;28;20040;-66
2022/08/29 14:35:55;;;;;;;3.65;2.47;;;24.50;66.10;;;;;;4187128;27;20036;-67
2022/08/29 14:37:56;;;;;;;6.47;2.70;;;24.60;66.00;;;;;;4170574;28;20289;-66
2022/08/29 14:39:56;;;;;;;6.03;2.90;;;24.50;65.70;;;;;;4189028;28;20075;-67
2022/08/29 14:41:57;;;;;;;7.45;3.42;;;24.50;65.80;;;;;;4189493;28;20037;-66
2022/08/29 14:43:57;;;;;;;6.00;2.65;;;24.50;66.70;;;;;;4175998;28;20051;-66
2022/08/29 14:45:58;;;;;;;4.78;2.55;;;24.40;65.40;;;;;;4188144;28;20045;-66
2022/08/29 14:47:59;;;;;;;4.32;2.20;;;24.30;65.40;;;;;;4188530;27;20041;-66
2022/08/29 14:50:00;;;;;;;5.93;2.67;;;24.50;73.00;;;;;;4186718;28;20076;-66
2022/08/29 14:52:01;;;;;;;4.47;2.45;;;24.60;70.90;;;;;;4185825;28;20066;-67
2022/08/29 14:54:01;;;;;;;4.78;2.40;;;24.50;65.20;;;;;;4185028;28;20053;-66
2022/08/29 14:56:03;;;;;;;5.13;2.63;;;24.60;67.20;;;;;;4186533;28;20040;-66
2022/08/29 14:58:03;;;;;;;4.45;2.53;;;24.60;67.70;;;;;;4186808;28;20040;-66
2022/08/29 15:00:12;;;;;;;9.30;3.00;;;24.70;66.60;;;;;;4186505;28;20033;-66
2022/08/29 15:02:13;;;;;;;6.05;2.83;;;24.40;64.40;;;;;;4186262;28;20036;-67
2022/08/29 15:04:13;;;;;;;6.93;3.17;;;24.50;64.80;;;;;;4186995;28;20037;-66
2022/08/29 15:06:14;;;;;;;6.43;2.95;;;24.50;64.60;;;;;;4179064;28;20485;-65
2022/08/29 15:08:14;;;;;;;5.65;3.22;;;24.50;64.40;;;;;;4175801;28;20521;-66
2022/08/29 15:10:17;;;;;;;5.18;2.92;;;24.40;64.00;;;;;;4175066;28;20052;-66
2022/08/29 15:12:20;;;;;;;5.30;2.80;;;24.50;65.00;;;;;;4174237;28;20033;-66
2022/08/29 15:14:21;;;;;;;5.43;2.83;;;24.60;66.30;;;;;;4174337;28;20036;-65
2022/08/29 15:16:21;;;;;;;6.90;3.30;;;24.70;66.10;;;;;;4174650;28;20033;-65
2022/08/29 15:18:23;;;;;;;7.93;3.67;;;24.60;63.30;;;;;;4175733;28;20108;-67
2022/08/29 15:20:25;;;;;;;6.03;2.70;;;24.50;62.60;;;;;;4174840;28;20044;-66
2022/08/29 15:22:26;;;;;;;6.75;3.35;;;24.60;63.30;;;;;;4173763;28;20128;-67
2022/08/29 15:24:27;;;;;;;3.80;2.60;;;24.60;64.10;;;;;;4174435;28;20065;-66
2022/08/29 15:26:27;;;;;;;5.13;2.60;;;24.70;69.10;;;;;;4174793;28;20044;-67
2022/08/29 15:28:28;;;;;;;4.90;2.83;;;24.60;62.90;;;;;;4174819;28;20507;-67
2022/08/29 15:30:28;;;;;;;5.97;2.80;;;24.60;73.10;;;;;;4174223;28;20064;-67
2022/08/29 15:32:29;;;;;;;4.75;2.53;;;24.70;65.20;;;;;;4164058;28;20112;-67
2022/08/29 15:34:30;;;;;;;5.53;2.70;;;24.70;65.50;;;;;;4190050;28;20040;-67
2022/08/29 15:36:31;;;;;;;4.90;2.50;;;24.80;66.60;;;;;;4174897;28;20062;-66
2022/08/29 15:38:32;;;;;;;9.25;2.88;;;24.80;69.10;;;;;;4175576;28;20838;-67
2022/08/29 15:40:34;;;;;;;3.58;2.47;;;24.90;70.70;;;;;;4174799;28;20159;-66
2022/08/29 15:42:37;;;;;;;5.13;2.92;;;24.90;63.30;;;;;;4174298;28;20454;-67
2022/08/29 15:44:39;;;;;;;3.25;2.40;;;24.70;61.80;;;;;;4166338;28;20043;-67
2022/08/29 15:46:39;;;;;;;4.85;2.78;;;24.80;63.30;;;;;;4173027;28;20061;-67
2022/08/29 15:48:40;;;;;;;5.05;2.95;;;24.80;64.10;;;;;;4174313;28;20044;-68
2022/08/29 15:50:41;;;;;;;4.18;2.67;;;24.90;62.50;;;;;;4172971;28;20068;-67
2022/08/29 15:52:42;;;;;;;5.10;2.40;;;24.90;65.00;;;;;;4175333;28;20426;-67
2022/08/29 15:54:42;;;;;;;6.32;2.88;;;24.90;63.70;;;;;;4173537;28;20094;-66
2022/08/29 15:56:43;;;;;;;5.43;2.65;;;25.00;69.70;;;;;;4173037;28;20037;-67
2022/08/29 15:58:44;;;;;;;6.10;2.70;;;25.00;62.50;;;;;;4174996;28;20036;-66
2022/08/29 16:00:45;;;;;;;4.90;2.90;;;25.10;62.70;;;;;;4187029;28;20048;-66
2022/08/29 16:02:45;;;;;;;3.88;2.47;;;25.00;62.50;;;;;;4173569;28;20033;-66
2022/08/29 16:04:47;;;;;;;5.45;3.33;;;24.90;62.30;;;;;;4174873;28;20048;-66
2022/08/29 16:06:48;;;;;;;5.40;2.75;;;25.00;68.10;;;;;;4172435;28;20033;-66
2022/08/29 16:08:49;;;;;;;5.67;2.93;;;25.00;65.40;;;;;;4187168;28;20037;-67
2022/08/29 16:10:50;;;;;;;5.05;2.90;;;24.80;62.10;;;;;;4173703;28;20036;-66
2022/08/29 16:12:50;;;;;;;5.18;2.97;;;24.90;62.60;;;;;;4172637;28;20083;-66
2022/08/29 16:14:51;;;;;;;5.22;2.92;;;24.90;62.90;;;;;;4174355;28;20037;-67
2022/08/29 16:16:51;;;;;;;7.95;3.70;;;24.70;62.50;;;;;;4174136;28;20025;-69
2022/08/29 16:18:53;;;;;;;6.32;2.97;;;24.70;63.10;;;;;;4174199;28;20021;-67
2022/08/29 16:20:54;;;;;;;8.43;3.10;;;24.80;63.00;;;;;;4172178;28;20029;-66
2022/08/29 16:22:55;;;;;;;6.57;2.90;;;24.70;62.10;;;;;;4175078;28;20497;-66
2022/08/29 16:24:55;;;;;;;6.00;3.25;;;24.50;62.30;;;;;;4174879;28;20040;-66
2022/08/29 16:26:57;;;;;;;5.68;3.10;;;24.50;62.40;;;;;;4156415;28;20528;-66
2022/08/29 16:28:58;;;;;;;4.50;2.70;;;24.50;62.60;;;;;;4173574;28;20144;-66
2022/08/29 16:30:58;;;;;;;5.03;2.83;;;24.50;66.00;;;;;;4173227;28;20060;-68
2022/08/29 16:33:00;;;;;;;5.00;2.72;;;24.50;62.70;;;;;;4174998;28;20470;-67
2022/08/29 16:35:01;;;;;;;4.32;2.83;;;24.50;62.70;;;;;;4174888;28;20041;-66
2022/08/29 16:37:02;;;;;;;4.75;3.03;;;24.50;62.90;;;;;;4174483;28;20442;-67
2022/08/29 16:39:04;;;;;;;6.55;2.97;;;24.40;63.10;;;;;;4174627;28;20033;-66
2022/08/29 16:41:11;;;;;;;4.60;2.80;;;24.40;64.00;;;;;;4173064;28;20045;-66
2022/08/29 16:43:12;;;;;;;5.05;2.95;;;24.40;63.70;;;;;;4188355;28;20037;-66
2022/08/29 16:45:13;;;;;;;6.60;2.92;;;24.40;64.20;;;;;;4174134;28;20041;-66
2022/08/29 16:47:14;;;;;;;4.85;2.58;;;24.50;64.00;;;;;;4174499;28;20037;-66
2022/08/29 16:49:14;;;;;;;6.78;3.00;;;24.40;63.50;;;;;;4173596;28;20033;-66
2022/08/29 16:51:17;;;;;;;6.25;2.60;;;24.40;63.90;;;;;;4173376;28;20482;-66
2022/08/29 16:53:18;;;;;;;5.05;2.70;;;24.50;65.50;;;;;;4171123;28;20444;-66
2022/08/29 16:55:19;;;;;;;4.38;2.35;;;24.60;71.90;;;;;;4172603;28;20249;-67
2022/08/29 16:57:20;;;;;;;6.30;2.75;;;24.60;64.00;;;;;;4174166;28;20459;-67
2022/08/29 16:59:21;;;;;;;6.40;2.75;;;24.60;63.60;;;;;;4170579;28;20041;-65
2022/08/29 17:01:22;;;;;;;5.30;2.30;;;24.50;64.60;;;;;;4174263;28;20036;-65
2022/08/29 17:03:22;;;;;;;4.25;2.50;;;24.50;63.60;;;;;;4173571;28;20029;-66
2022/08/29 17:05:23;;;;;;;4.65;2.42;;;24.50;64.00;;;;;;4173331;28;20092;-66
2022/08/29 17:17:40;;;;;;;4.13;2.40;;;24.40;64.90;;;;;;4173752;28;20029;-66
2022/08/29 17:19:43;;;;;;;4.97;2.42;;;24.50;70.30;;;;;;4173495;28;20041;-66
2022/08/29 17:21:44;;;;;;;3.10;1.80;;;24.60;68.10;;;;;;4173164;28;20852;-66
2022/08/29 17:23:46;;;;;;;6.20;2.33;;;24.60;65.50;;;;;;4175702;28;20420;-66
2022/08/29 17:25:46;;;;;;;3.92;1.92;;;24.60;74.20;;;;;;4173183;28;20025;-67
2022/08/29 17:27:48;;;;;;;2.63;1.95;;;24.60;75.80;;;;;;4172303;28;20074;-66
2022/08/29 17:29:48;;;;;;;4.25;2.30;;;24.70;69.40;;;;;;4172168;28;20116;-67
2022/08/29 17:31:49;;;;;;;4.72;2.15;;;24.70;68.60;;;;;;4172000;28;20143;-66
2022/08/29 17:33:50;;;;;;;3.53;2.20;;;24.70;71.80;;;;;;4177379;28;20032;-66
2022/08/29 17:35:51;;;;;;;3.72;2.35;;;24.70;72.40;;;;;;4176778;28;21078;-66
2022/08/29 17:37:52;;;;;;;7.40;1.98;;;24.70;69.20;;;;;;4175857;28;20025;-66
2022/08/29 17:39:53;;;;;;;3.28;1.98;;;24.70;75.80;;;;;;4176047;28;20037;-67
2022/08/29 17:41:54;;;;;;;3.63;2.22;;;24.80;67.60;;;;;;4175596;28;20063;-66
2022/08/29 17:43:54;;;;;;;3.00;2.00;;;24.80;67.20;;;;;;4177336;28;20032;-66
2022/08/29 17:45:56;;;;;;;3.55;2.22;;;24.80;70.30;;;;;;4175197;28;20127;-66
2022/08/29 17:47:57;;;;;;;2.87;1.80;;;24.80;68.30;;;;;;4176458;28;20098;-66
2022/08/29 17:49:58;;;;;;;3.13;1.90;;;24.80;68.70;;;;;;4174623;28;20033;-66
2022/08/29 17:51:59;;;;;;;3.95;2.17;;;24.90;66.40;;;;;;4176182;28;20036;-67
2022/08/29 17:53:59;;;;;;;3.25;2.17;;;24.80;66.80;;;;;;4174763;28;20048;-66
2022/08/29 17:56:19;;;;;;;2.83;1.75;;;24.80;71.40;;;;;;4175072;28;20375;-66
2022/08/29 17:58:21;;;;;;;4.55;2.17;;;24.80;69.50;;;;;;4171433;28;20559;-66
2022/08/29 18:00:23;;;;;;;3.17;2.13;;;24.80;67.50;;;;;;4172385;28;20103;-66
2022/08/29 18:02:24;;;;;;;3.83;2.22;;;24.80;66.90;;;;;;4175184;28;20033;-66
2022/08/29 18:04:26;;;;;;;3.30;2.00;;;24.80;68.90;;;;;;4175232;28;20083;-66
2022/08/29 18:06:27;;;;;;;3.20;2.05;;;24.80;70.20;;;;;;4167665;28;20097;-66
2022/08/29 18:08:27;;;;;;;3.10;1.67;;;24.80;69.30;;;;;;4199705;28;20124;-66
2022/08/29 18:10:29;;;;;;;3.70;2.10;;;24.70;67.50;;;;;;4173564;28;20029;-66
2022/08/29 18:12:30;;;;;;;2.22;1.65;;;24.70;72.50;;;;;;4172524;28;20036;-66
2022/08/29 18:14:31;;;;;;;2.80;1.83;;;24.60;67.80;;;;;;4172619;28;20039;-66
2022/08/29 18:16:31;;;;;;;2.92;1.92;;;24.60;70.60;;;;;;4175435;28;20029;-66
2022/08/29 18:18:32;;;;;;;3.10;1.73;;;24.60;68.20;;;;;;4174600;28;20048;-66
2022/08/29 18:20:33;;;;;;;4.60;1.70;;;24.50;67.70;;;;;;4171150;28;20123;-66
2022/08/29 18:22:34;;;;;;;6.85;2.42;;;24.50;68.20;;;;;;4171040;28;20025;-66
2022/08/29 18:24:34;;;;;;;2.17;1.77;;;24.40;68.10;;;;;;4175087;28;20397;-65
2022/08/29 18:26:35;;;;;;;3.40;1.83;;;24.40;68.30;;;;;;4170394;28;20041;-65
2022/08/29 18:28:35;;;;;;;2.47;1.90;;;24.30;68.40;;;;;;4174015;28;20036;-66
2022/08/29 18:30:36;;;;;;;2.25;1.67;;;24.30;68.40;;;;;;4170368;28;20037;-66
2022/08/29 18:32:37;;;;;;;3.70;2.03;;;24.30;68.60;;;;;;4172038;28;20083;-66
2022/08/29 18:34:39;;;;;;;3.78;2.05;;;24.30;69.00;;;;;;4175924;28;20133;-65
2022/08/29 18:36:41;;;;;;;3.25;1.90;;;24.20;68.70;;;;;;4173491;28;20025;-65
2022/08/29 18:38:42;;;;;;;3.17;1.65;;;24.20;68.80;;;;;;4174713;28;20048;-66
2022/08/29 18:40:43;;;;;;;3.65;1.88;;;24.10;69.10;;;;;;4174132;28;20033;-65
2022/08/29 18:42:44;;;;;;;3.70;1.90;;;24.00;69.20;;;;;;4180236;28;20128;-66
2022/08/29 18:44:44;;;;;;;3.20;2.05;;;24.00;69.50;;;;;;4175977;28;20038;-66
2022/08/29 18:46:45;;;;;;;1.98;1.40;;;24.00;69.50;;;;;;4177482;28;20040;-66
2022/08/29 18:48:46;;;;;;;2.60;1.80;;;24.00;69.60;;;;;;4178000;28;20116;-65
2022/08/29 18:50:47;;;;;;;4.03;1.90;;;24.00;69.70;;;;;;4177133;28;20037;-65
2022/08/29 18:52:48;;;;;;;4.38;2.35;;;23.90;69.80;;;;;;4178361;28;20087;-65
2022/08/29 18:54:48;;;;;;;5.25;1.98;;;23.90;70.80;;;;;;4178324;28;20097;-66
2022/08/29 18:56:49;;;;;;;5.38;1.77;;;23.90;70.90;;;;;;4175731;28;20079;-66
2022/08/29 18:58:50;;;;;;;4.18;1.67;;;23.80;70.30;;;;;;4177471;28;20124;-66
2022/08/29 19:00:51;;;;;;;2.83;1.70;;;23.80;72.70;;;;;;4177501;28;20359;-66
2022/08/29 19:02:54;;;;;;;3.85;2.08;;;23.80;72.00;;;;;;4178565;28;20114;-66
2022/08/29 19:04:54;;;;;;;4.97;2.28;;;23.80;72.60;;;;;;4177792;28;20505;-66
2022/08/29 19:06:55;;;;;;;2.90;1.70;;;23.90;71.70;;;;;;4177624;28;20086;-66
2022/08/29 19:08:56;;;;;;;2.72;1.67;;;23.90;75.70;;;;;;4177385;28;20502;-66
2022/08/29 19:10:58;;;;;;;3.72;1.80;;;23.90;72.50;;;;;;4176345;28;20041;-67
2022/08/29 19:12:59;;;;;;;3.63;2.08;;;23.90;70.60;;;;;;4177282;28;20045;-66
2022/08/29 19:15:01;;;;;;;6.28;1.80;;;23.90;70.50;;;;;;4177390;28;20382;-67
2022/08/29 19:17:01;;;;;;;5.22;1.90;;;23.90;70.50;;;;;;4179602;28;20608;-66
2022/08/29 19:19:02;;;;;;;3.38;2.10;;;23.90;72.50;;;;;;4175262;28;20041;-66
2022/08/29 19:21:06;;;;;;;3.50;1.90;;;23.90;70.80;;;;;;4177054;28;20090;-66
2022/08/29 19:23:07;;;;;;;2.78;2.13;;;23.80;71.00;;;;;;4177090;28;20120;-66
2022/08/29 19:25:08;;;;;;;2.67;1.90;;;23.70;71.50;;;;;;4177818;28;20033;-67
2022/08/29 19:27:09;;;;;;;3.90;2.03;;;23.70;72.40;;;;;;4176470;28;20057;-65
2022/08/29 19:29:11;;;;;;;4.70;2.05;;;23.70;72.70;;;;;;4176739;28;20150;-66
2022/08/29 19:31:12;;;;;;;2.85;1.70;;;23.70;72.80;;;;;;4176379;28;20129;-65
2022/08/29 19:33:17;;;;;;;5.63;2.10;;;23.70;72.30;;;;;;4178234;28;20039;-66
2022/08/29 19:35:17;;;;;;;3.40;1.92;;;23.70;72.60;;;;;;4173991;28;20403;-66
2022/08/29 19:37:18;;;;;;;3.88;2.03;;;23.70;71.90;;;;;;4178947;28;22829;-66
2022/08/29 19:39:19;;;;;;;3.50;2.10;;;23.60;72.00;;;;;;4175171;28;20044;-66
2022/08/29 19:41:20;;;;;;;5.80;2.00;;;23.50;72.00;;;;;;4172865;28;20087;-66
2022/08/29 19:43:29;;;;;;;5.40;2.10;;;23.50;72.20;;;;;;4178101;28;20044;-66
2022/08/29 19:45:30;;;;;;;3.45;2.15;;;23.30;72.40;;;;;;4176563;28;20486;-66
2022/08/29 19:47:32;;;;;;;11.13;2.63;;;23.30;72.60;;;;;;4178088;28;20101;-66
2022/08/29 19:49:32;;;;;;;4.28;2.17;;;23.20;72.70;;;;;;4174722;28;20175;-66
2022/08/29 19:51:33;;;;;;;3.42;2.05;;;23.20;72.70;;;;;;4175626;28;20041;-66
2022/08/29 19:53:36;;;;;;;2.83;2.03;;;23.10;72.90;;;;;;4174588;28;20037;-66
2022/08/29 19:55:38;;;;;;;3.53;2.17;;;23.20;75.00;;;;;;4177772;28;20041;-69
2022/08/29 19:57:39;;;;;;;2.80;1.88;;;23.20;74.00;;;;;;4174353;28;20045;-66
2022/08/29 19:59:39;;;;;;;3.83;2.17;;;23.20;74.80;;;;;;4175421;28;20426;-66
2022/08/29 20:01:40;;;;;;;3.67;1.85;;;23.20;74.50;;;;;;4176901;28;20051;-65
2022/08/29 20:03:41;;;;;;;4.55;2.20;;;23.20;74.40;;;;;;4176765;28;20041;-66
2022/08/29 20:05:42;;;;;;;2.67;2.08;;;23.20;75.30;;;;;;4176224;28;20040;-65
2022/08/29 20:07:46;;;;;;;4.60;2.13;;;23.30;73.00;;;;;;4176589;28;20476;-66
2022/08/29 20:09:47;;;;;;;2.75;1.90;;;23.30;73.90;;;;;;4173685;28;20040;-66
2022/08/29 20:11:47;;;;;;;3.30;1.90;;;23.30;73.50;;;;;;4177720;28;20442;-66
2022/08/29 20:13:50;;;;;;;4.93;1.88;;;23.30;74.20;;;;;;4178288;28;20436;-65
2022/08/29 20:15:52;;;;;;;2.63;1.80;;;23.30;74.00;;;;;;4175868;28;20330;-65
2022/08/29 20:17:53;;;;;;;3.13;1.83;;;23.30;73.80;;;;;;4178388;28;20041;-66
2022/08/29 20:19:53;;;;;;;3.33;1.75;;;23.30;77.00;;;;;;4177063;28;20028;-66
2022/08/29 20:21:54;;;;;;;5.13;1.90;;;23.30;74.30;;;;;;4177612;28;20478;-67
2022/08/29 20:23:55;;;;;;;3.90;2.10;;;23.30;75.40;;;;;;4178178;28;20027;-66
2022/08/29 20:25:58;;;;;;;2.33;1.50;;;23.30;74.30;;;;;;4178740;28;20575;-66
2022/08/29 20:27:59;;;;;;;3.42;1.98;;;23.30;73.30;;;;;;4178130;28;20033;-65
2022/08/29 20:29:59;;;;;;;2.85;1.65;;;23.20;72.90;;;;;;4169835;28;20021;-68
2022/08/29 20:32:00;;;;;;;3.25;1.70;;;23.20;73.10;;;;;;4177536;28;20029;-66
2022/08/29 20:34:01;;;;;;;4.75;2.20;;;23.10;73.20;;;;;;4178169;28;20409;-66
2022/08/29 20:38:21;;;;;;;2.97;1.60;;;23.00;73.80;;;;;;4180826;28;20041;-66
2022/08/29 20:40:22;;;;;;;6.60;2.05;;;23.00;74.00;;;;;;4177697;28;20725;-66
2022/08/29 20:42:24;;;;;;;3.00;1.70;;;22.90;74.30;;;;;;4176900;28;20378;-65
2022/08/29 20:44:27;;;;;;;3.57;1.97;;;22.90;74.60;;;;;;4177653;28;20045;-66
2022/08/29 20:46:27;;;;;;;2.47;1.67;;;22.80;74.90;;;;;;4176011;28;20025;-66
2022/08/29 20:48:28;;;;;;;3.42;1.63;;;22.70;75.20;;;;;;4177854;28;20119;-67
2022/08/29 20:50:28;;;;;;;4.80;1.88;;;22.60;75.60;;;;;;4173960;28;20037;-66
2022/08/29 20:52:29;;;;;;;2.90;1.75;;;22.50;75.90;;;;;;4174021;28;20033;-65
2022/08/29 20:54:31;;;;;;;3.22;1.52;;;22.50;76.50;;;;;;4174294;28;20124;-68
2022/08/29 20:56:31;;;;;;;3.40;1.98;;;22.50;76.90;;;;;;4175413;28;20033;-66
2022/08/29 20:58:33;;;;;;;2.80;1.60;;;22.50;78.30;;;;;;4175138;28;20116;-66
2022/08/29 21:00:34;;;;;;;2.95;1.75;;;22.50;77.50;;;;;;4172038;28;20045;-65
2022/08/29 21:07:15;;;;;;;3.75;2.10;;;22.60;76.80;;;;;;4172693;28;20036;-65
2022/08/29 21:09:15;;;;;;;2.92;2.05;;;22.60;80.00;;;;;;4176464;28;20044;-65
2022/08/29 21:11:16;;;;;;;2.35;1.70;;;22.60;78.10;;;;;;4177566;28;20051;-66
2022/08/29 21:13:17;;;;;;;3.53;1.90;;;22.50;77.50;;;;;;4177125;28;20039;-65
2022/08/29 21:15:18;;;;;;;3.00;1.60;;;22.40;78.20;;;;;;4176372;28;20460;-65
2022/08/29 21:17:19;;;;;;;2.50;1.63;;;22.40;77.70;;;;;;4175875;28;20037;-65
2022/08/29 21:19:20;;;;;;;2.67;1.73;;;22.30;78.10;;;;;;4177382;28;20114;-65
2022/08/29 21:21:21;;;;;;;2.05;1.60;;;22.20;78.30;;;;;;4176727;28;20035;-65
2022/08/29 21:23:23;;;;;;;2.25;1.38;;;22.20;78.50;;;;;;4177574;28;20037;-65
2022/08/29 21:25:24;;;;;;;2.38;1.67;;;22.20;78.90;;;;;;4158873;28;20038;-66
2022/08/29 21:27:25;;;;;;;3.55;1.88;;;22.20;79.30;;;;;;4177477;28;20441;-65
2022/08/29 21:29:26;;;;;;;3.22;1.60;;;22.10;79.60;;;;;;4171182;28;20033;-65
2022/08/29 21:31:27;;;;;;;3.30;1.60;;;22.10;79.90;;;;;;4174837;28;20056;-66
2022/08/29 21:33:27;;;;;;;2.42;1.52;;;22.00;80.00;;;;;;4177796;28;20044;-65
2022/08/29 21:35:28;;;;;;;2.67;1.48;;;22.00;80.20;;;;;;4174980;28;20052;-65
2022/08/29 21:37:29;;;;;;;1.83;1.20;;;22.00;80.30;;;;;;4173215;28;20033;-65
2022/08/29 21:39:29;;;;;;;2.40;1.80;;;22.00;80.40;;;;;;4178453;28;20044;-65
2022/08/29 21:41:31;;;;;;;2.08;1.60;;;22.00;80.50;;;;;;4174787;28;20039;-66
2022/08/29 21:43:31;;;;;;;2.60;1.60;;;22.10;81.00;;;;;;4178580;28;20040;-65
2022/08/29 21:45:33;;;;;;;2.53;1.80;;;22.10;80.90;;;;;;4176823;28;20025;-65
2022/08/29 21:47:34;;;;;;;5.75;1.65;;;22.10;80.60;;;;;;4175513;28;20116;-65
2022/08/29 21:49:34;;;;;;;2.70;1.70;;;22.10;80.80;;;;;;4175525;28;20501;-65
2022/08/29 21:51:35;;;;;;;1.85;1.38;;;22.10;81.10;;;;;;4178803;28;20025;-65
2022/08/29 21:53:36;;;;;;;4.85;1.90;;;22.00;81.60;;;;;;4177226;28;20029;-65
2022/08/29 21:55:36;;;;;;;2.97;1.83;;;22.00;81.60;;;;;;4176993;28;20037;-65
2022/08/29 22:00:13;;;;;;;4.05;1.70;;;21.80;83.50;;;;;;4155563;28;20068;-65
2022/08/29 22:02:16;;;;;;;2.72;1.77;;;21.60;85.10;;;;;;4159444;28;20413;-65
2022/08/29 22:04:18;;;;;;;2.67;1.92;;;21.50;85.90;;;;;;4176397;28;20036;-65
2022/08/29 22:06:18;;;;;;;3.17;1.88;;;21.50;86.50;;;;;;4175063;28;20029;-65
2022/08/29 22:08:20;;;;;;;5.82;1.90;;;21.40;86.70;;;;;;4176636;28;20142;-65
2022/08/29 22:10:24;;;;;;;2.33;1.55;;;21.40;87.00;;;;;;4175856;28;20500;-65
2022/08/29 22:12:27;;;;;;;3.17;1.90;;;21.40;87.70;;;;;;4177477;28;20036;-65
2022/08/29 22:16:47;;;;;;;2.45;1.42;;;21.40;88.80;;;;;;4179095;28;20000;-65
2022/08/29 22:18:47;;;;;;;2.50;1.63;;;21.40;88.00;;;;;;4178858;28;20165;-65
2022/08/29 22:20:48;;;;;;;4.82;1.63;;;21.50;87.70;;;;;;4178685;28;20474;-65
2022/08/29 22:22:51;;;;;;;3.13;1.70;;;21.50;87.80;;;;;;4182555;28;20410;-65
2022/08/29 22:24:52;;;;;;;3.88;1.58;;;21.50;87.70;;;;;;4179261;28;20037;-65
2022/08/29 22:26:52;;;;;;;3.05;1.70;;;21.50;87.80;;;;;;4180152;28;20555;-65
2022/08/29 22:28:53;;;;;;;2.55;1.65;;;21.60;88.20;;;;;;4179982;28;20045;-65
2022/08/29 22:30:53;;;;;;;2.72;1.80;;;21.60;88.90;;;;;;4178916;28;20056;-65
2022/08/29 22:32:54;;;;;;;2.13;1.50;;;21.60;88.70;;;;;;4181399;28;20493;-66
2022/08/29 22:34:55;;;;;;;2.65;1.60;;;21.60;88.30;;;;;;4180491;28;20037;-65
2022/08/29 22:36:55;;;;;;;5.07;1.92;;;21.60;88.40;;;;;;4179456;28;20466;-65
2022/08/29 22:38:56;;;;;;;2.72;1.60;;;21.60;89.00;;;;;;4179835;28;20037;-65
2022/08/29 22:40:57;;;;;;;3.78;1.90;;;21.50;89.40;;;;;;4177603;28;20033;-68
2022/08/29 22:42:58;;;;;;;4.53;1.98;;;21.50;89.80;;;;;;4180225;28;20041;-65
2022/08/29 22:44:59;;;;;;;5.47;1.90;;;21.50;90.00;;;;;;4179495;28;20045;-65
2022/08/29 22:47:00;;;;;;;4.28;1.88;;;21.50;90.10;;;;;;4179067;28;20044;-65
2022/08/29 22:49:01;;;;;;;2.58;1.60;;;21.40;90.30;;;;;;4179314;28;20041;-65
2022/08/29 22:51:02;;;;;;;4.60;2.00;;;21.40;90.40;;;;;;4178057;28;20033;-65
2022/08/29 22:53:03;;;;;;;4.38;1.92;;;21.40;90.40;;;;;;4179898;28;20029;-66
2022/08/29 22:55:06;;;;;;;3.65;1.77;;;21.40;90.40;;;;;;4179535;28;20064;-66
2022/08/29 22:57:09;;;;;;;3.65;1.90;;;21.40;90.40;;;;;;4178837;28;20041;-65
2022/08/29 22:59:11;;;;;;;3.58;1.88;;;21.40;90.40;;;;;;4178195;28;20067;-65
2022/08/29 23:01:12;;;;;;;2.47;1.90;;;21.30;90.70;;;;;;4180299;28;20029;-65
2022/08/29 23:03:13;;;;;;;4.28;1.85;;;21.40;90.70;;;;;;4180020;28;20067;-65
2022/08/29 23:05:14;;;;;;;3.67;2.00;;;21.30;90.60;;;;;;4179458;28;20033;-65
2022/08/29 23:07:15;;;;;;;4.50;1.92;;;21.30;90.70;;;;;;4179404;28;20033;-65
2022/08/29 23:09:16;;;;;;;3.80;1.92;;;21.30;90.80;;;;;;4179251;28;20033;-65
2022/08/29 23:11:17;;;;;;;4.63;1.88;;;21.30;91.00;;;;;;4178329;28;22486;-65
2022/08/29 23:13:18;;;;;;;3.83;2.15;;;21.20;91.10;;;;;;4183648;28;20064;-65
2022/08/29 23:15:19;;;;;;;4.72;2.05;;;21.20;91.10;;;;;;4178992;28;20509;-65
2022/08/29 23:17:19;;;;;;;3.08;1.80;;;21.20;91.70;;;;;;4179517;28;20044;-65
2022/08/29 23:19:20;;;;;;;3.28;2.13;;;21.20;91.40;;;;;;4178332;28;20060;-65
2022/08/29 23:21:21;;;;;;;3.88;2.30;;;21.10;91.70;;;;;;4181907;28;20029;-65
2022/08/29 23:23:22;;;;;;;4.75;1.90;;;20.90;91.90;;;;;;4178360;28;20033;-66
2022/08/29 23:25:22;;;;;;;4.63;2.03;;;20.90;92.10;;;;;;4177084;28;20033;-65
2022/08/29 23:27:23;;;;;;;3.05;1.65;;;20.90;93.40;;;;;;4178477;28;20033;-65
2022/08/29 23:29:24;;;;;;;3.50;1.95;;;20.90;92.20;;;;;;4177489;28;20120;-65
2022/08/29 23:31:24;;;;;;;3.33;2.08;;;20.80;92.20;;;;;;4181147;28;20449;-66
2022/08/29 23:33:25;;;;;;;3.08;2.13;;;20.80;93.40;;;;;;4178867;28;20057;-65
2022/08/29 23:35:25;;;;;;;4.18;2.15;;;20.90;92.90;;;;;;4189394;28;20383;-65
2022/08/29 23:37:26;;;;;;;5.15;1.92;;;20.80;92.50;;;;;;4178332;28;20075;-65
2022/08/29 23:39:27;;;;;;;4.00;2.65;;;20.80;92.70;;;;;;4177300;28;20398;-65
2022/08/29 23:41:28;;;;;;;4.10;2.05;;;20.70;92.90;;;;;;4178266;28;20028;-65
2022/08/29 23:43:30;;;;;;;5.63;2.38;;;20.60;93.10;;;;;;4178836;28;20509;-65
2022/08/29 23:45:31;;;;;;;5.47;2.40;;;20.50;93.40;;;;;;4177899;28;20523;-65
2022/08/29 23:47:31;;;;;;;4.30;2.30;;;20.40;93.70;;;;;;4179097;28;20044;-65
2022/08/29 23:49:32;;;;;;;5.53;2.30;;;20.40;93.70;;;;;;4176037;28;20502;-65
2022/08/29 23:51:33;;;;;;;4.25;2.10;;;20.40;93.90;;;;;;4177601;28;20032;-66
2022/08/29 23:53:34;;;;;;;4.03;1.98;;;20.40;94.00;;;;;;4179292;28;20032;-65
2022/08/29 23:55:35;;;;;;;3.53;2.33;;;20.40;94.10;;;;;;4176114;28;20038;-65
2022/08/29 23:57:37;;;;;;;3.75;1.98;;;20.30;94.20;;;;;;4177300;28;20407;-65
